Time;durP1;ratioP1;P1;durP2;ratioP2;P2;SDS_P1;SDS_P2;PMS_P1;PMS_P2;Temp;Humidity;BMP_temperature;BMP_pressure;BME280_temperature;BME280_humidity;BME280_pressure;Samples;Min_cycle;Max_cycle;Signal;HPM_P1;HPM_P2
2021/03/22 00:01:15;;;;;;;27.00;5.70;;;;;;;1.75;81.51;102418.16;5094206;28;20024;-74
2021/03/22 00:03:40;;;;;;;30.40;6.25;;;;;;;1.70;82.48;102417.84;5095251;28;20115;-74
2021/03/22 00:06:06;;;;;;;30.52;6.18;;;;;;;1.59;83.74;102418.84;5094798;28;20135;-73
2021/03/22 00:08:32;;;;;;;27.10;5.53;;;;;;;1.51;84.26;102414.81;5095797;28;20027;-74
2021/03/22 00:10:58;;;;;;;31.08;6.07;;;;;;;1.45;86.84;102417.03;5094560;28;20055;-74
2021/03/22 00:13:25;;;;;;;33.80;6.70;;;;;;;1.38;86.57;102411.41;5094523;28;20500;-74
2021/03/22 00:15:53;;;;;;;28.40;6.20;;;;;;;1.33;87.94;102411.91;5092424;28;20027;-74
2021/03/22 00:18:22;;;;;;;30.48;5.88;;;;;;;1.28;87.19;102410.66;5092376;28;20020;-73
2021/03/22 00:20:48;;;;;;;30.55;6.38;;;;;;;1.25;90.58;102413.06;5095041;28;20452;-73
2021/03/22 00:23:14;;;;;;;27.52;6.07;;;;;;;1.24;89.69;102416.47;5093571;28;20027;-73
2021/03/22 00:25:39;;;;;;;30.52;6.47;;;;;;;1.17;88.24;102409.97;5094697;28;20055;-69
2021/03/22 00:28:05;;;;;;;30.55;6.45;;;;;;;1.14;90.33;102409.75;5093936;28;20556;-74
2021/03/22 00:30:34;;;;;;;31.77;6.47;;;;;;;1.12;91.72;102411.34;5093940;28;20656;-74
2021/03/22 00:32:59;;;;;;;31.10;6.40;;;;;;;1.08;91.90;102407.63;5093974;28;20024;-68
2021/03/22 00:35:25;;;;;;;32.70;5.95;;;;;;;1.03;89.79;102412.53;5093541;28;20035;-73
2021/03/22 00:37:51;;;;;;;29.90;5.85;;;;;;;1.06;88.89;102410.94;5094435;28;20142;-74
2021/03/22 00:40:19;;;;;;;30.40;6.15;;;;;;;1.08;88.16;102404.13;5093149;28;20436;-74
2021/03/22 00:42:45;;;;;;;27.77;6.05;;;;;;;1.07;87.29;102410.16;5094542;28;20024;-72
2021/03/22 00:45:12;;;;;;;33.13;6.07;;;;;;;1.04;88.55;102406.50;5094080;28;20036;-73
2021/03/22 00:47:38;;;;;;;32.38;6.40;;;;;;;1.02;93.68;102410.72;5094398;28;20051;-74
2021/03/22 00:50:05;;;;;;;28.35;6.68;;;;;;;1.05;93.82;102410.03;5094356;28;20100;-74
2021/03/22 00:52:31;;;;;;;32.40;6.60;;;;;;;1.02;94.22;102405.53;5093916;28;20052;-74
2021/03/22 00:54:56;;;;;;;30.00;6.45;;;;;;;1.03;94.19;102406.41;5093645;28;20435;-74
2021/03/22 00:57:21;;;;;;;32.35;6.10;;;;;;;1.00;96.82;102404.50;5093684;28;20043;-75
2021/03/22 00:59:47;;;;;;;30.65;6.00;;;;;;;0.98;95.05;102390.47;5093289;28;20386;-75
2021/03/22 01:02:12;;;;;;;29.30;7.30;;;;;;;0.96;97.46;102399.91;5093983;28;20145;-74
2021/03/22 01:04:37;;;;;;;30.85;6.07;;;;;;;0.94;95.55;102396.25;5092784;28;20145;-69
2021/03/22 01:07:03;;;;;;;35.22;7.18;;;;;;;0.88;98.36;102403.66;5094310;28;20051;-74
2021/03/22 01:09:29;;;;;;;30.48;6.78;;;;;;;0.86;98.67;102397.47;5093401;28;20024;-74
2021/03/22 01:11:54;;;;;;;32.30;7.35;;;;;;;0.86;95.99;102392.25;5075423;28;20042;-74
2021/03/22 01:14:20;;;;;;;33.20;6.80;;;;;;;0.80;100.00;102390.13;5093954;28;20108;-74
2021/03/22 01:16:45;;;;;;;32.88;7.00;;;;;;;0.77;100.00;102387.31;5092804;28;20028;-75
2021/03/22 01:19:24;;;;;;;32.67;6.80;;;;;;;0.75;100.00;102378.47;5094037;28;20024;-74
2021/03/22 01:21:56;;;;;;;28.95;6.40;;;;;;;0.74;100.00;102376.66;5091369;28;20028;-74
2021/03/22 01:24:24;;;;;;;36.10;7.18;;;;;;;0.73;100.00;102374.88;5093899;28;20060;-75
2021/03/22 01:26:53;;;;;;;30.88;7.20;;;;;;;0.74;100.00;102380.97;5092523;28;20035;-75
2021/03/22 01:29:24;;;;;;;35.67;7.45;;;;;;;0.73;100.00;102374.88;5093003;28;20107;-74
2021/03/22 01:31:52;;;;;;;28.38;7.00;;;;;;;0.67;100.00;102375.38;5093496;28;20036;-74
2021/03/22 01:34:18;;;;;;;33.85;7.20;;;;;;;0.58;100.00;102374.72;5091908;28;20063;-74
2021/03/22 01:36:43;;;;;;;33.22;7.10;;;;;;;0.49;100.00;102374.06;5091955;28;20056;-74
2021/03/22 01:39:14;;;;;;;32.53;6.80;;;;;;;0.38;100.00;102369.81;5093574;28;20074;-71
2021/03/22 01:42:03;;;;;;;31.38;6.40;;;;;;;0.31;100.00;102365.91;5089911;28;20415;-73
2021/03/22 01:44:33;;;;;;;30.88;7.03;;;;;;;0.22;100.00;102371.34;5092738;28;20404;-75
2021/03/22 01:47:03;;;;;;;28.88;6.43;;;;;;;0.21;99.49;102371.25;5092187;28;20162;-75
2021/03/22 01:49:34;;;;;;;29.20;6.53;;;;;;;0.31;99.61;102352.91;5092722;28;20165;-75
2021/03/22 01:52:00;;;;;;;31.20;6.85;;;;;;;0.34;100.00;102361.78;5092199;28;20053;-73
2021/03/22 01:54:25;;;;;;;35.83;7.47;;;;;;;0.24;100.00;102348.94;5093138;28;20031;-74
2021/03/22 01:56:53;;;;;;;33.22;7.03;;;;;;;0.21;100.00;102358.25;5091865;28;20107;-74
2021/03/22 01:59:32;;;;;;;35.67;7.55;;;;;;;0.17;100.00;102355.44;5092752;28;20532;-74
2021/03/22 02:02:01;;;;;;;33.17;7.55;;;;;;;0.17;100.00;102351.91;5091912;28;20024;-74
2021/03/22 02:04:28;;;;;;;34.42;7.45;;;;;;;0.23;100.00;102343.63;5090197;28;20028;-73
2021/03/22 02:06:54;;;;;;;31.77;7.32;;;;;;;0.20;100.00;102344.31;5092375;28;20522;-74
2021/03/22 02:09:20;;;;;;;35.17;8.30;;;;;;;0.26;100.00;102341.25;5090934;28;20104;-73
2021/03/22 02:11:45;;;;;;;34.58;8.13;;;;;;;0.25;100.00;102344.63;5092162;28;20024;-74
2021/03/22 02:14:11;;;;;;;34.85;7.55;;;;;;;0.21;100.00;102340.94;5092109;28;20107;-74
2021/03/22 02:17:11;;;;;;;33.35;7.60;;;;;;;0.12;100.00;102351.59;5091908;28;20158;-73
2021/03/22 02:20:14;;;;;;;32.88;6.68;;;;;;;0.03;100.00;102339.63;5092395;28;20024;-74
2021/03/22 02:22:40;;;;;;;31.15;6.85;;;;;;;-0.07;100.00;102344.19;5091841;28;20052;-74
2021/03/22 02:25:50;;;;;;;32.67;8.35;;;;;;;-0.10;100.00;102335.25;5091652;28;20095;-73
2021/03/22 02:28:39;;;;;;;34.17;7.60;;;;;;;-0.04;100.00;102334.00;5031248;28;20124;-73
2021/03/22 02:31:39;;;;;;;35.28;7.75;;;;;;;-0.02;100.00;102337.59;5092902;28;20028;-73
2021/03/22 02:34:18;;;;;;;37.58;8.55;;;;;;;0.00;100.00;102332.53;5090919;28;20031;-73
2021/03/22 02:37:27;;;;;;;33.00;7.53;;;;;;;-0.04;100.00;102341.78;5092293;28;20111;-71
2021/03/22 02:39:55;;;;;;;34.10;8.27;;;;;;;-0.09;100.00;102348.34;5089990;28;20017;-73
2021/03/22 02:42:22;;;;;;;34.40;7.95;;;;;;;-0.15;100.00;102340.13;5089601;28;20032;-72
2021/03/22 02:44:47;;;;;;;34.92;8.70;;;;;;;-0.18;100.00;102335.59;5087190;28;20512;-73
2021/03/22 02:47:35;;;;;;;32.92;7.47;;;;;;;-0.20;100.00;102337.19;5090584;28;20020;-74
2021/03/22 02:50:04;;;;;;;34.13;7.30;;;;;;;-0.15;100.00;102334.91;5090020;28;20546;-73
2021/03/22 02:52:41;;;;;;;34.45;7.50;;;;;;;-0.10;100.00;102338.75;5091782;28;20108;-72
2021/03/22 02:55:12;;;;;;;31.60;7.72;;;;;;;-0.15;100.00;102334.91;5092016;28;20052;-69
2021/03/22 02:57:49;;;;;;;34.58;8.38;;;;;;;-0.19;100.00;102339.00;5091253;28;20031;-69
2021/03/22 03:00:29;;;;;;;39.10;8.35;;;;;;;-0.21;100.00;102334.47;5090959;28;20012;-67
2021/03/22 03:02:58;;;;;;;35.53;8.07;;;;;;;-0.29;100.00;102328.75;5074225;28;20111;-71
2021/03/22 03:05:27;;;;;;;38.55;8.73;;;;;;;-0.29;100.00;102336.53;5093779;28;20055;-69
2021/03/22 03:07:57;;;;;;;34.70;8.15;;;;;;;-0.35;100.00;102343.88;5092222;28;20420;-70
2021/03/22 03:10:22;;;;;;;33.28;8.05;;;;;;;-0.45;100.00;102334.53;5091280;28;20098;-69
2021/03/22 03:12:48;;;;;;;34.63;7.78;;;;;;;-0.49;100.00;102336.78;5091144;28;20119;-73
2021/03/22 03:15:15;;;;;;;35.50;8.75;;;;;;;-0.48;100.00;102335.97;5091521;28;20020;-70
2021/03/22 03:17:40;;;;;;;35.13;8.60;;;;;;;-0.37;100.00;102346.34;5091289;28;20101;-74
2021/03/22 03:20:09;;;;;;;38.20;8.48;;;;;;;-0.31;100.00;102348.50;5092139;28;20032;-71
2021/03/22 03:22:37;;;;;;;37.42;8.98;;;;;;;-0.32;100.00;102341.53;5095700;28;20114;-68
2021/03/22 03:25:04;;;;;;;36.42;8.73;;;;;;;-0.32;100.00;102356.19;5094932;28;20043;-73
2021/03/22 03:27:29;;;;;;;36.15;8.90;;;;;;;-0.34;100.00;102357.78;5094598;28;20431;-69
2021/03/22 03:29:54;;;;;;;38.00;9.10;;;;;;;-0.36;100.00;102350.78;5096220;28;20107;-68
2021/03/22 03:32:20;;;;;;;32.30;7.90;;;;;;;-0.42;100.00;102354.63;5095249;28;20076;-71
2021/03/22 03:34:47;;;;;;;38.83;8.48;;;;;;;-0.40;100.00;102359.13;5095189;28;20066;-68
2021/03/22 03:37:12;;;;;;;36.25;8.55;;;;;;;-0.34;100.00;102355.19;5094553;28;20035;-69
2021/03/22 03:39:38;;;;;;;31.67;7.72;;;;;;;-0.46;100.00;102345.69;5095000;28;20027;-68
2021/03/22 03:42:07;;;;;;;35.30;8.32;;;;;;;-0.50;100.00;102353.16;5094481;28;20059;-70
2021/03/22 03:44:33;;;;;;;31.40;8.45;;;;;;;-0.53;100.00;102351.22;5095761;28;20039;-69
2021/03/22 03:46:58;;;;;;;37.75;9.75;;;;;;;-0.53;100.00;102359.91;5093274;28;20036;-73
2021/03/22 03:49:24;;;;;;;37.72;9.27;;;;;;;-0.50;100.00;102366.16;5092793;28;20027;-71
2021/03/22 03:51:49;;;;;;;38.95;9.50;;;;;;;-0.48;100.00;102360.28;5095881;28;20024;-70
2021/03/22 03:54:15;;;;;;;41.90;9.95;;;;;;;-0.49;100.00;102360.19;5094466;28;20074;-68
2021/03/22 03:56:40;;;;;;;35.65;9.07;;;;;;;-0.51;100.00;102362.66;5096019;28;20039;-71
2021/03/22 03:59:06;;;;;;;35.53;8.60;;;;;;;-0.49;100.00;102357.56;5093920;28;20031;-70
2021/03/22 04:01:33;;;;;;;34.63;8.10;;;;;;;-0.46;100.00;102366.50;5095929;28;20077;-67
2021/03/22 04:03:58;;;;;;;34.58;8.80;;;;;;;-0.40;100.00;102369.53;5093983;28;20028;-72
2021/03/22 04:06:27;;;;;;;35.95;9.02;;;;;;;-0.34;100.00;102369.06;5093911;28;20455;-71
2021/03/22 04:08:56;;;;;;;38.33;9.38;;;;;;;-0.22;100.00;102369.97;5095343;28;20032;-69
2021/03/22 04:11:28;;;;;;;40.10;9.77;;;;;;;-0.16;100.00;102369.53;5093914;28;20028;-67
2021/03/22 04:13:54;;;;;;;34.03;8.63;;;;;;;-0.14;100.00;102367.03;5094436;28;20024;-70
2021/03/22 04:16:20;;;;;;;38.85;9.40;;;;;;;-0.05;100.00;102370.28;5092906;28;20118;-69
2021/03/22 04:18:46;;;;;;;36.85;9.20;;;;;;;0.03;100.00;102363.94;5095972;28;20031;-70
2021/03/22 04:21:16;;;;;;;38.17;9.38;;;;;;;0.15;100.00;102363.91;5095460;28;20024;-69
2021/03/22 04:23:44;;;;;;;43.92;9.77;;;;;;;0.24;100.00;102377.56;5095722;28;20491;-71
2021/03/22 04:26:09;;;;;;;35.63;9.13;;;;;;;0.33;100.00;102367.78;5095238;28;20044;-69
2021/03/22 04:28:37;;;;;;;37.35;9.75;;;;;;;0.40;100.00;102363.03;5093054;28;20047;-71
2021/03/22 04:31:03;;;;;;;36.97;9.02;;;;;;;0.43;100.00;102371.94;5096179;28;20478;-70
2021/03/22 04:33:29;;;;;;;37.00;9.52;;;;;;;0.49;100.00;102371.47;5090909;28;20426;-72
2021/03/22 04:35:55;;;;;;;39.17;8.95;;;;;;;0.55;100.00;102382.31;5095839;28;20020;-72
2021/03/22 04:38:20;;;;;;;40.30;9.52;;;;;;;0.60;100.00;102380.94;5093118;28;20077;-68
2021/03/22 04:40:46;;;;;;;35.75;9.23;;;;;;;0.67;100.00;102383.16;5093264;28;20070;-68
2021/03/22 04:43:13;;;;;;;35.85;9.32;;;;;;;0.73;100.00;102374.88;5095269;28;20036;-71
2021/03/22 04:45:38;;;;;;;32.90;8.57;;;;;;;0.77;100.00;102366.50;5094043;28;20486;-71
2021/03/22 04:48:04;;;;;;;36.78;9.65;;;;;;;0.82;100.00;102369.41;5094600;28;20055;-68
2021/03/22 04:50:30;;;;;;;38.22;9.32;;;;;;;0.85;100.00;102373.09;5093300;28;20024;-70
2021/03/22 04:52:56;;;;;;;38.13;9.10;;;;;;;0.92;100.00;102382.25;5093698;28;20364;-68
2021/03/22 04:55:24;;;;;;;36.20;9.10;;;;;;;0.98;100.00;102380.06;5093479;28;20035;-68
2021/03/22 04:57:50;;;;;;;35.78;9.20;;;;;;;1.01;100.00;102368.94;5093007;28;20027;-69
2021/03/22 05:00:31;;;;;;;34.15;9.13;;;;;;;1.06;100.00;102384.88;5098368;28;20028;-68
2021/03/22 05:02:56;;;;;;;34.35;8.45;;;;;;;1.09;100.00;102385.09;5092211;28;20027;-67
2021/03/22 05:05:23;;;;;;;35.25;8.88;;;;;;;1.11;100.00;102384.41;5092842;28;20032;-71
2021/03/22 05:07:49;;;;;;;38.72;9.80;;;;;;;1.13;100.00;102380.19;5093345;28;20383;-68
2021/03/22 05:10:22;;;;;;;33.92;8.63;;;;;;;1.16;100.00;102384.69;5092186;28;20153;-68
2021/03/22 05:12:47;;;;;;;31.58;8.45;;;;;;;1.16;100.00;102382.09;5091392;28;20032;-71
2021/03/22 05:15:13;;;;;;;33.00;8.75;;;;;;;1.13;100.00;102381.91;5093113;28;20024;-69
2021/03/22 05:17:38;;;;;;;34.25;8.48;;;;;;;1.13;100.00;102392.31;5092735;28;20387;-70
2021/03/22 05:20:07;;;;;;;31.52;8.73;;;;;;;1.15;100.00;102393.31;5093391;28;20073;-69
2021/03/22 05:22:32;;;;;;;39.20;9.32;;;;;;;1.15;100.00;102389.03;5092501;28;20047;-69
2021/03/22 05:24:57;;;;;;;38.15;8.85;;;;;;;1.16;100.00;102388.19;5092408;28;20129;-71
2021/03/22 05:27:23;;;;;;;38.60;9.40;;;;;;;1.15;100.00;102391.63;5092882;28;20477;-68
2021/03/22 05:29:48;;;;;;;34.95;9.30;;;;;;;1.16;100.00;102387.31;5094002;28;20028;-68
2021/03/22 05:32:34;;;;;;;38.40;9.05;;;;;;;1.17;100.00;102395.22;5092618;28;20392;-70
2021/03/22 05:35:00;;;;;;;37.65;9.40;;;;;;;1.17;100.00;102392.63;5094807;28;20024;-68
2021/03/22 05:37:27;;;;;;;34.08;9.20;;;;;;;1.13;100.00;102390.59;5093522;28;20031;-68
2021/03/22 05:39:52;;;;;;;34.15;9.55;;;;;;;1.13;100.00;102394.91;5092788;28;20114;-68
2021/03/22 05:42:35;;;;;;;37.08;9.80;;;;;;;1.12;100.00;102398.31;5093999;28;20111;-67
2021/03/22 05:45:05;;;;;;;36.70;10.43;;;;;;;1.11;100.00;102394.81;5092708;28;20020;-73
2021/03/22 05:48:24;;;;;;;41.95;10.70;;;;;;;1.10;100.00;102390.41;5092790;28;20475;-71
2021/03/22 05:50:55;;;;;;;45.92;10.75;;;;;;;1.15;100.00;102393.31;5072551;28;20032;-71
2021/03/22 05:53:33;;;;;;;41.20;10.43;;;;;;;1.22;100.00;102398.13;5096474;28;20483;-67
2021/03/22 05:56:01;;;;;;;43.90;10.98;;;;;;;1.30;100.00;102399.56;5090624;28;20031;-67
2021/03/22 05:58:29;;;;;;;39.92;10.95;;;;;;;1.39;100.00;102392.34;5093102;28;20064;-69
2021/03/22 06:01:04;;;;;;;38.30;10.95;;;;;;;1.49;100.00;102382.53;5092262;28;20101;-74
2021/03/22 06:03:33;;;;;;;42.65;11.02;;;;;;;1.53;100.00;102394.94;5091993;28;20028;-74
2021/03/22 06:06:23;;;;;;;39.40;10.55;;;;;;;1.55;100.00;102399.47;5092735;28;20402;-73
2021/03/22 06:08:55;;;;;;;40.53;10.88;;;;;;;1.64;100.00;102407.00;5090752;28;20378;-72
2021/03/22 06:11:47;;;;;;;38.17;10.82;;;;;;;1.72;100.00;102408.41;5092888;28;20016;-71
2021/03/22 06:14:25;;;;;;;38.25;10.68;;;;;;;1.83;100.00;102403.88;5091674;28;20024;-71
2021/03/22 06:17:15;;;;;;;41.80;11.30;;;;;;;1.97;100.00;102399.56;5092640;28;20036;-72
2021/03/22 06:19:48;;;;;;;36.75;11.30;;;;;;;1.98;100.00;102405.69;5091055;28;20133;-72
2021/03/22 06:22:22;;;;;;;41.55;10.68;;;;;;;2.06;100.00;102409.69;5092644;28;20069;-73
2021/03/22 06:24:48;;;;;;;40.03;11.35;;;;;;;2.16;100.00;102390.31;5091422;28;20371;-70
2021/03/22 06:27:15;;;;;;;38.63;10.90;;;;;;;2.13;100.00;102398.84;5092487;28;20043;-74
2021/03/22 06:29:40;;;;;;;41.10;10.85;;;;;;;2.11;100.00;102396.94;5091117;28;20099;-75
2021/03/22 06:32:20;;;;;;;37.05;10.60;;;;;;;2.18;100.00;102405.25;5093301;28;20518;-67
2021/03/22 06:34:51;;;;;;;38.40;10.43;;;;;;;2.32;100.00;102405.22;5089659;28;20371;-67
2021/03/22 06:37:20;;;;;;;42.13;11.02;;;;;;;2.43;100.00;102399.88;5093587;28;20040;-68
2021/03/22 06:39:46;;;;;;;34.63;8.82;;;;;;;2.60;100.00;102394.78;5094308;28;20060;-67
2021/03/22 06:42:24;;;;;;;38.95;9.80;;;;;;;2.70;100.00;102401.47;5094002;28;20434;-66
2021/03/22 06:44:52;;;;;;;40.13;10.05;;;;;;;2.82;100.00;102412.66;5090921;28;20435;-67
2021/03/22 06:47:17;;;;;;;36.92;9.93;;;;;;;2.94;100.00;102412.50;5092510;28;20053;-66
2021/03/22 06:49:49;;;;;;;34.72;10.23;;;;;;;3.02;100.00;102413.88;5090581;28;20040;-67
2021/03/22 06:52:24;;;;;;;35.97;9.95;;;;;;;3.13;100.00;102404.97;5092124;28;20115;-67
2021/03/22 06:54:55;;;;;;;36.67;10.23;;;;;;;3.25;100.00;102411.75;5091726;28;20131;-66
2021/03/22 06:57:25;;;;;;;39.47;10.02;;;;;;;3.33;100.00;102407.84;5091257;28;20069;-65
2021/03/22 07:00:21;;;;;;;37.83;9.57;;;;;;;3.42;99.98;102418.88;5091982;28;20017;-66
2021/03/22 07:02:50;;;;;;;38.85;9.23;;;;;;;3.52;98.54;102416.78;5091611;28;20042;-65
2021/03/22 07:05:28;;;;;;;33.42;8.38;;;;;;;3.63;97.31;102418.31;5091046;28;20060;-64
2021/03/22 07:08:00;;;;;;;37.05;8.40;;;;;;;3.72;95.16;102413.59;5092477;28;20060;-65
2021/03/22 07:10:32;;;;;;;35.88;9.02;;;;;;;3.76;94.91;102415.59;5091072;28;20485;-65
2021/03/22 07:13:06;;;;;;;34.90;9.52;;;;;;;3.82;94.42;102421.16;5090972;28;20051;-66
2021/03/22 07:15:36;;;;;;;33.55;8.60;;;;;;;3.90;93.19;102418.97;5090120;28;20363;-67
2021/03/22 07:18:27;;;;;;;38.40;9.45;;;;;;;3.92;94.24;102422.59;5091037;28;20032;-67
2021/03/22 07:20:55;;;;;;;33.70;8.40;;;;;;;4.02;93.02;102421.41;5090055;28;20035;-64
2021/03/22 07:23:23;;;;;;;35.40;8.93;;;;;;;3.99;93.55;102422.13;5092065;28;20032;-68
2021/03/22 07:25:55;;;;;;;35.13;8.40;;;;;;;4.12;92.35;102414.94;5091261;28;20093;-71
2021/03/22 07:28:42;;;;;;;36.28;8.85;;;;;;;4.16;91.67;102414.31;5091817;28;20210;-68
2021/03/22 07:31:39;;;;;;;31.88;8.15;;;;;;;4.28;91.07;102409.75;5089585;28;20047;-67
2021/03/22 07:34:20;;;;;;;35.70;8.63;;;;;;;4.33;90.34;102421.38;5092620;28;20026;-70
2021/03/22 07:36:57;;;;;;;34.10;8.07;;;;;;;4.42;89.27;102428.84;5090291;28;20107;-70
2021/03/22 07:39:37;;;;;;;32.67;7.63;;;;;;;4.46;89.28;102430.81;5093525;28;20036;-71
2021/03/22 07:42:20;;;;;;;36.17;8.05;;;;;;;4.57;87.81;102425.25;5089941;28;20024;-70
2021/03/22 07:44:54;;;;;;;30.88;7.85;;;;;;;4.62;88.57;102429.91;5091666;28;20027;-71
2021/03/22 07:47:38;;;;;;;34.33;7.70;;;;;;;4.71;87.60;102425.16;5091927;28;20056;-71
2021/03/22 07:50:18;;;;;;;29.67;7.22;;;;;;;4.83;86.60;102424.91;5091706;28;20471;-72
2021/03/22 07:52:52;;;;;;;32.30;7.68;;;;;;;4.94;86.55;102422.00;5090554;28;20027;-71
2021/03/22 07:55:38;;;;;;;34.03;7.63;;;;;;;5.06;85.91;102422.63;5071394;28;20526;-71
2021/03/22 07:58:40;;;;;;;30.48;7.50;;;;;;;5.23;83.99;102428.75;5088470;28;20042;-72
2021/03/22 08:01:17;;;;;;;32.58;7.18;;;;;;;5.26;84.33;102431.53;5088301;28;20126;-71
2021/03/22 08:03:58;;;;;;;34.95;7.85;;;;;;;5.39;82.70;102430.44;5089951;28;20051;-72
2021/03/22 08:06:49;;;;;;;31.10;6.93;;;;;;;5.48;82.39;102427.38;5088965;28;20031;-71
2021/03/22 08:09:32;;;;;;;29.20;7.53;;;;;;;5.54;82.67;102432.91;5094679;28;20080;-71
2021/03/22 08:12:37;;;;;;;32.90;7.60;;;;;;;5.65;81.99;102431.75;5094701;28;20040;-70
2021/03/22 08:15:23;;;;;;;30.40;7.43;;;;;;;5.79;81.21;102440.28;5098134;28;20076;-72
2021/03/22 08:17:54;;;;;;;30.67;6.95;;;;;;;5.88;80.17;102422.38;5094063;28;20036;-70
2021/03/22 08:20:30;;;;;;;27.77;7.07;;;;;;;6.04;78.67;102434.56;5093565;28;20020;-70
2021/03/22 08:22:59;;;;;;;29.35;6.60;;;;;;;6.10;77.96;102426.03;5093498;28;20016;-71
2021/03/22 08:25:33;;;;;;;27.15;7.10;;;;;;;6.23;78.07;102427.53;5094642;28;20048;-71
2021/03/22 08:28:20;;;;;;;25.70;6.20;;;;;;;6.38;76.96;102424.75;5094961;28;20028;-72
2021/03/22 08:30:58;;;;;;;28.15;6.03;;;;;;;6.49;73.17;102426.13;5093231;28;20558;-72
2021/03/22 08:33:55;;;;;;;26.27;6.03;;;;;;;6.66;74.65;102433.91;5091580;28;20051;-72
2021/03/22 08:36:49;;;;;;;24.73;6.25;;;;;;;6.74;74.20;102436.06;4991832;28;20043;-72
2021/03/22 08:39:36;;;;;;;;;;;;;;;6.89;73.86;102432.31;5011845;28;20037;-71
2021/03/22 08:42:04;;;;;;;25.10;5.93;;;;;;;6.87;71.26;102436.59;5005979;28;19928;-72
2021/03/22 08:44:38;;;;;;;27.13;5.95;;;;;;;6.98;71.94;102436.22;5010194;28;20030;-72
2021/03/22 08:47:42;;;;;;;22.17;5.32;;;;;;;7.15;71.33;102438.72;5009438;28;20527;-71
2021/03/22 08:50:17;;;;;;;27.08;5.55;;;;;;;7.26;70.11;102450.59;4962232;28;20042;-70
2021/03/22 08:52:53;;;;;;;25.33;5.70;;;;;;;7.32;69.56;102450.88;4960681;28;20109;-70
2021/03/22 08:55:20;;;;;;;25.45;6.00;;;;;;;7.29;69.16;102452.47;4959582;28;20126;-70
2021/03/22 08:57:52;;;;;;;25.23;5.70;;;;;;;7.10;68.61;102456.03;4960843;28;20038;-70
2021/03/22 09:00:35;;;;;;;22.73;5.25;;;;;;;6.91;68.09;102457.81;4959277;28;20053;-71
2021/03/22 09:03:00;;;;;;;19.98;4.32;;;;;;;6.87;67.44;102457.63;4956950;28;20034;-68
2021/03/22 09:05:28;;;;;;;21.73;4.97;;;;;;;7.03;67.17;102453.94;4956708;28;20047;-70
2021/03/22 09:08:22;;;;;;;21.10;4.47;;;;;;;7.32;67.51;102453.53;4957830;28;20039;-69
2021/03/22 09:10:50;;;;;;;16.80;3.50;;;;;;;7.47;62.95;102453.28;4960799;28;20386;-71
2021/03/22 09:13:26;;;;;;;19.33;4.28;;;;;;;7.57;63.47;102462.47;4998722;28;20499;-70
2021/03/22 09:16:32;;;;;;;19.60;3.78;;;;;;;7.71;64.62;102452.50;5013967;28;20045;-71
2021/03/22 09:19:13;;;;;;;20.08;4.25;;;;;;;7.99;61.65;102466.78;5015837;28;20041;-71
2021/03/22 09:21:39;;;;;;;22.83;4.65;;;;;;;8.06;59.78;102465.31;5015104;28;20374;-69
2021/03/22 09:24:39;;;;;;;19.27;4.30;;;;;;;8.26;61.74;102467.03;5017783;28;20126;-70
2021/03/22 09:27:13;;;;;;;19.30;4.00;;;;;;;8.18;60.04;102463.16;5061571;28;20040;-70
2021/03/22 09:29:51;;;;;;;20.15;4.07;;;;;;;8.18;60.78;102458.81;5093683;28;20024;-70
2021/03/22 09:32:25;;;;;;;18.05;3.72;;;;;;;8.24;60.14;102460.78;5091834;28;20522;-70
2021/03/22 09:34:53;;;;;;;20.00;4.43;;;;;;;8.25;58.65;102459.94;5093506;28;20438;-70
2021/03/22 09:38:00;;;;;;;19.33;4.18;;;;;;;8.16;59.80;102454.31;5094785;28;20289;-71
2021/03/22 09:40:26;;;;;;;18.35;3.65;;;;;;;8.02;58.20;102452.03;5092231;28;20517;-70
2021/03/22 09:43:07;;;;;;;20.13;3.67;;;;;;;8.01;60.38;102452.88;5091715;28;20024;-71
2021/03/22 09:45:37;;;;;;;17.60;3.92;;;;;;;8.05;59.35;102459.13;5074235;28;20040;-72
2021/03/22 09:48:26;;;;;;;16.90;3.50;;;;;;;8.10;60.85;102454.09;5093387;28;20036;-72
2021/03/22 09:51:22;;;;;;;18.42;3.75;;;;;;;8.11;59.90;102462.03;5094307;28;20052;-72
2021/03/22 09:54:01;;;;;;;18.25;3.60;;;;;;;8.07;59.25;102459.19;5089634;28;20491;-68
2021/03/22 09:56:41;;;;;;;17.88;3.47;;;;;;;8.03;59.26;102463.47;5089735;28;20494;-71
2021/03/22 09:59:22;;;;;;;18.45;3.70;;;;;;;8.06;59.36;102466.22;5091761;28;20371;-71
2021/03/22 10:01:48;;;;;;;16.67;3.60;;;;;;;8.01;59.18;102468.66;5092111;28;20036;-72
2021/03/22 10:04:15;;;;;;;18.83;3.70;;;;;;;7.97;57.82;102464.09;5090744;28;20080;-71
2021/03/22 10:06:59;;;;;;;17.55;3.70;;;;;;;8.04;58.91;102467.91;5092640;28;20563;-72
2021/03/22 10:09:30;;;;;;;21.08;4.07;;;;;;;8.06;58.51;102467.97;5090577;28;20099;-71
2021/03/22 10:11:58;;;;;;;18.65;4.18;;;;;;;8.11;58.23;102466.38;5092482;28;20039;-71
2021/03/22 10:14:36;;;;;;;20.45;3.85;;;;;;;8.15;58.66;102463.94;5089320;28;20470;-71
2021/03/22 10:17:02;;;;;;;20.15;4.10;;;;;;;8.29;57.93;102467.13;5092286;28;20028;-71
2021/03/22 10:19:30;;;;;;;18.77;4.07;;;;;;;8.44;57.18;102476.47;5093125;28;20028;-71
2021/03/22 10:22:04;;;;;;;17.92;4.22;;;;;;;8.51;58.22;102478.56;5092775;28;20024;-70
2021/03/22 10:24:47;;;;;;;19.75;4.35;;;;;;;8.54;58.82;102483.94;5091508;28;20578;-72
2021/03/22 10:27:34;;;;;;;19.92;4.25;;;;;;;8.55;58.83;102481.38;5089953;28;20028;-68
2021/03/22 10:30:20;;;;;;;20.08;4.63;;;;;;;8.54;58.20;102481.31;5090126;28;20031;-71
2021/03/22 10:32:58;;;;;;;20.33;4.68;;;;;;;8.45;59.05;102480.97;5090915;28;20076;-71
2021/03/22 10:35:28;;;;;;;18.48;4.40;;;;;;;8.11;57.99;102474.28;5091885;28;20024;-71
2021/03/22 10:37:56;;;;;;;22.40;4.90;;;;;;;7.89;59.34;102486.56;5091818;28;20034;-71
2021/03/22 10:40:39;;;;;;;19.33;3.90;;;;;;;7.91;59.07;102474.41;5091604;28;20478;-72
2021/03/22 10:43:20;;;;;;;18.95;4.28;;;;;;;7.89;58.69;102480.44;5091249;28;20081;-71
2021/03/22 10:45:46;;;;;;;18.83;4.28;;;;;;;8.10;58.69;102476.03;5092029;28;20024;-71
2021/03/22 10:48:24;;;;;;;17.95;3.88;;;;;;;8.51;57.39;102489.09;5091118;28;20066;-71
2021/03/22 10:51:08;;;;;;;20.98;4.05;;;;;;;8.60;57.90;102478.00;5091245;28;20070;-71
2021/03/22 10:53:34;;;;;;;18.35;3.97;;;;;;;8.92;55.53;102486.25;5090040;28;20561;-71
2021/03/22 10:56:21;;;;;;;18.92;4.50;;;;;;;9.24;55.25;102477.75;5092252;28;20030;-71
2021/03/22 10:58:47;;;;;;;18.75;4.80;;;;;;;9.39;53.47;102482.69;5089015;28;20032;-71
2021/03/22 11:01:13;;;;;;;19.35;4.57;;;;;;;9.68;53.15;102488.06;5091383;28;20370;-70
2021/03/22 11:03:38;;;;;;;18.23;3.88;;;;;;;9.93;53.08;102484.53;5073824;28;20031;-70
2021/03/22 11:06:13;;;;;;;17.95;4.28;;;;;;;9.77;53.89;102482.19;5090762;28;20369;-71
2021/03/22 11:08:41;;;;;;;17.65;4.40;;;;;;;9.39;52.89;102482.69;5091675;28;20419;-71
2021/03/22 11:11:10;;;;;;;19.13;4.32;;;;;;;9.24;54.10;102487.41;5091180;28;20024;-71
2021/03/22 11:13:38;;;;;;;20.00;4.65;;;;;;;8.99;54.42;102488.28;5092194;28;20028;-71
2021/03/22 11:16:08;;;;;;;18.15;4.60;;;;;;;9.05;55.50;102496.41;5091774;28;20067;-71
2021/03/22 11:18:34;;;;;;;18.27;4.05;;;;;;;8.89;54.42;102493.19;5091086;28;20088;-71
2021/03/22 11:21:01;;;;;;;18.20;4.22;;;;;;;8.98;55.20;102491.75;5092217;28;20035;-71
2021/03/22 11:23:30;;;;;;;18.75;4.50;;;;;;;8.90;54.68;102486.19;5091794;28;20386;-70
2021/03/22 11:26:17;;;;;;;20.27;4.55;;;;;;;8.69;54.57;102489.81;5090093;28;20052;-70
2021/03/22 11:28:43;;;;;;;18.33;4.38;;;;;;;8.64;54.22;102487.84;5091275;28;20307;-70
2021/03/22 11:31:20;;;;;;;16.35;4.20;;;;;;;8.64;55.83;102488.72;5091564;28;20024;-69
2021/03/22 11:33:57;;;;;;;17.52;4.10;;;;;;;8.72;56.01;102499.56;5091597;28;20067;-70
2021/03/22 11:36:33;;;;;;;16.58;3.70;;;;;;;8.70;55.67;102498.63;5089680;28;20637;-70
2021/03/22 11:39:11;;;;;;;17.23;3.63;;;;;;;8.65;56.23;102493.16;5089455;28;20028;-70
2021/03/22 11:41:44;;;;;;;15.60;3.50;;;;;;;8.59;55.28;102498.22;5092544;28;20449;-72
2021/03/22 11:44:23;;;;;;;15.65;3.53;;;;;;;8.22;56.71;102509.88;5093953;28;20028;-69
2021/03/22 11:47:16;;;;;;;15.80;3.67;;;;;;;8.03;57.06;102501.22;5098367;28;20036;-66